Flight Track Log - Related Links

Times and Time Zones

All times are in EDT time to prevent confusion due to time zone crossing. See the N7591N flight status page for this flight to view local times or setup timezone preferences in your user account.

Time Position Orientation Groundspeed Altitude Reporting Facility
EDT Latitude Longitude Course Direction KTS MPH feet Rate Location/Type
Wed 02:19:56 PM 36.0078 -75.7769 360° North 158 182 2,400  Level Washington Center
Wed 02:20:57 PM 36.0033 -75.8128 261° West 132 152 2,800 202 Climbing Washington Center
Wed 02:21:55 PM 35.9931 -75.8564 254° West 126 145 2,800 -50 Level Washington Center
Wed 02:22:56 PM 35.9844 -75.9025 257° West 126 145 2,700  Descending Washington Center
Wed 02:23:56 PM 35.9803 -75.9489 264° West 133 153 2,800  Climbing Washington Center
Wed 02:24:00 PM 35.9722 -75.9415 260° West  Level FlightAware Approximate
Wed 02:24:56 PM 35.9758 -75.9950 263° West 133 153 2,700  Level Washington Center
Wed 02:25:57 PM 35.9675 -76.0436 258° West 145 167 2,700  Level Washington Center
Wed 02:26:56 PM 35.9567 -76.0897 254° West 145 167 2,700  Level Washington Center
Wed 02:27:56 PM 35.9483 -76.1358 257° West 145 167 2,700 50 Level Washington Center
Wed 02:28:57 PM 35.9439 -76.1822 263° West 145 167 2,800  Climbing Washington Center
Wed 02:29:55 PM 35.9414 -76.2308 266° West 145 167 2,700 -50 Descending Washington Center
Wed 02:30:56 PM 35.9433 -76.2769 273° West 145 167 2,700 49 Level Washington Center
Wed 02:31:57 PM 35.9431 -76.3258 270° West 139 160 2,800  Climbing Washington Center
Wed 02:32:57 PM 35.9386 -76.3719 263° West 139 160 2,700 -102 Descending Washington Center
Wed 02:33:55 PM 35.9342 -76.4206 264° West 144 166 2,600 -51 Descending Washington Center
Wed 02:34:55 PM 35.9381 -76.4642 276° West 139 160 2,600 50 Level Washington Center
Wed 02:35:56 PM 35.9500 -76.5106 288° West 139 160 2,700 101 Climbing Washington Center
Wed 02:36:54 PM 35.9539 -76.5569 276° West 144 166 2,800 50 Climbing Washington Center
Wed 02:37:55 PM 35.9514 -76.6031 266° West 144 166 2,800  Level Washington Center
Wed 02:38:55 PM 35.9367 -76.6414 245° Southwest 144 166 2,800  Level Washington Center
Wed 02:39:56 PM 35.9111 -76.6767 228° Southwest 139 160 2,800  Level Washington Center
Wed 02:40:55 PM 35.8900 -76.7125 234° Southwest 139 160 2,800  Level Washington Center
Wed 02:41:55 PM 35.8667 -76.7506 233° Southwest 139 160 2,800 -55 Level Washington Center
Wed 02:43:00 PM 35.8741 -76.8041 280° West  Level FlightAware Approximate
Wed 02:46:21 PM 35.7689 -76.9181 280° West 139 160 2,500  Level Washington Center
Wed 02:47:21 PM 35.7561 -76.9408 235° Southwest 139 160 2,500  Level Washington Center
Wed 02:49:18 PM 35.7561 -76.9408 292° West 139 160 2,500  Level Washington Center
Wed 02:50:00 PM 35.9218 -77.1503 280° West  Level FlightAware Approximate
Wed 02:51:00 PM 35.9285 -77.1998 280° West  Level FlightAware Approximate
Wed 02:51:21 PM 35.7561 -76.9408 292° West 139 160 2,500  Level Washington Center
Wed 02:52:20 PM 35.6328 -77.1381 232° Southwest 165 190 2,800 151 Climbing Washington Center
Wed 02:53:20 PM 35.6053 -77.1786 230° Southwest 160 184 2,800  Level Washington Center
Wed 02:54:21 PM 35.5839 -77.2139 233° Southwest 147 169 2,800  Level Washington Center
Wed 02:55:19 PM 35.5747 -77.2597 256° West 140 161 2,800  Level Washington Center
Wed 02:56:20 PM 35.5700 -77.3081 263° West 140 161 2,800  Level Washington Center
Wed 02:57:20 PM 35.5650 -77.3589 263° West 146 168 2,800  Level Washington Center
Wed 02:58:21 PM 35.5581 -77.4047 259° West 146 168 2,800  Level Washington Center
Wed 02:59:20 PM 35.5533 -77.4533 263° West 141 162 2,800  Level Washington Center
Wed 03:00:21 PM 35.5483 -77.5017 263° West 141 162 2,800  Level Washington Center
Wed 03:01:19 PM 35.5372 -77.5472 253° West 141 162 2,800  Level Washington Center
Wed 03:02:19 PM 35.5197 -77.5903 243° Southwest 147 169 2,800  Level Washington Center
Wed 03:03:45 PM 35.4978 -77.6508 246° West 139 160 2,800  Level Washington Center
Wed 03:04:45 PM 35.4844 -77.6992 251° West 141 162 2,800  Level Washington Center
Wed 03:05:43 PM 35.4669 -77.7394 242° Southwest 139 160 2,800  Level Washington Center
Wed 03:06:44 PM 35.4536 -77.7850 250° West 141 162 2,800  Level Washington Center
Wed 03:07:45 PM 35.4342 -77.8278 241° Southwest 140 161 2,800  Level Washington Center
Wed 03:08:47 PM 35.4167 -77.8706 243° Southwest 137 158 2,800  Level Washington Center
Wed 03:09:48 PM 35.3992 -77.9083 240° Southwest 135 155 2,800  Level Washington Center
Wed 03:10:46 PM 35.3733 -77.9508 233° Southwest 144 166 2,800  Level Washington Center
Wed 03:11:50 PM 35.3578 -77.9936 246° West 141 162 2,800  Level Washington Center
Wed 03:12:48 PM 35.3361 -78.0414 241° Southwest 145 167 2,800  Level Washington Center
Wed 03:13:48 PM 35.3186 -78.0817 242° Southwest 148 170 2,800  Level Washington Center
Wed 03:14:55 PM 35.2967 -78.1317 242° Southwest 145 167 2,800  Level Washington Center
Wed 03:15:50 PM 35.2792 -78.1694 240° Southwest 144 166 2,800  Level Washington Center
Wed 03:16:51 PM 35.2594 -78.2144 242° Southwest 142 163 2,800  Level Washington Center
Wed 03:17:51 PM 35.2417 -78.2572 243° Southwest 142 163 2,800  Level Washington Center
Wed 03:18:52 PM 35.2239 -78.3025 244° Southwest 143 165 2,800  Level Washington Center
Wed 03:20:00 PM 35.2375 -78.3553 288° West  Level FlightAware Approximate
Wed 03:27:00 PM 35.2387 -78.6971 265° West  Level Estimated
Wed 03:28:00 PM 35.2382 -78.7459 269° West  Level FlightAware Approximate
Wed 03:29:00 PM 35.2378 -78.7947 269° West  Level FlightAware Approximate
Wed 03:30:00 PM 35.2373 -78.8436 269° West  Level FlightAware Approximate
Wed 03:31:00 PM 35.2368 -78.8924 269° West  Level FlightAware Approximate
Wed 03:32:00 PM 35.2363 -78.9412 269° West  Level FlightAware Approximate
Wed 03:33:00 PM 35.2358 -78.9901 269° West  Level FlightAware Approximate
Wed 03:34:00 PM 35.2353 -79.0389 269° West  Level FlightAware Approximate
Wed 03:35:00 PM 35.2347 -79.0877 269° West  Level FlightAware Approximate
Wed 03:36:00 PM 35.2341 -79.1366 269° West  Level FlightAware Approximate
Wed 03:37:00 PM 35.2335 -79.1854 269° West  Level FlightAware Approximate
Wed 03:38:00 PM 35.2334 -79.2412 270° West  Level FlightAware Approximate
Wed 03:39:00 PM 35.2334 -79.2901 270° West  Level FlightAware Approximate
Wed 03:40:00 PM 35.2334 -79.3389 270° West  Level FlightAware Approximate
Wed 03:41:00 PM 35.2333 -79.3833 270° West  Level FlightAware Approximate
Wed 03:42:00 PM 35.2380 -79.3883 270° West  Level Estimated
Wed 03:43:00 PM 35.2333 -79.3833 270° West  Level FlightAware Approximate
Wed 03:44:00 PM 35.2380 -79.3883 270° West  Level Estimated
Wed 03:45:00 PM 35.2333 -79.3833 270° West  Level FlightAware Approximate
Wed 03:46:00 PM 35.2380 -79.3883 270° West  Level Estimated
Wed 03:47:00 PM 35.2333 -79.3833 270° West  Level FlightAware Approximate
Wed 03:48:00 PM 35.2380 -79.3883 270° West  Level Estimated
Wed 03:49:00 PM 35.2333 -79.3833 270° West  Level FlightAware Approximate
Wed 03:50:00 PM 35.2380 -79.3883 270° West  Level Estimated

Login

Don't have an account? Register now (free) for customized features, flight alerts, and more!